sensor_id;sensor_type;location;lat;lon;timestamp;pressure;altitude;pressure_sealevel;temperature;humidity
78383;BME280;67668;52.294;4.692;2023-12-20T00:00:38;101647.03;;;8.38;90.15
78383;BME280;67668;52.294;4.692;2023-12-20T00:03:04;101648.09;;;8.35;90.76
78383;BME280;67668;52.294;4.692;2023-12-20T00:05:30;101641.13;;;8.34;89.88
78383;BME280;67668;52.294;4.692;2023-12-20T00:07:57;101652.53;;;8.35;90.77
78383;BME280;67668;52.294;4.692;2023-12-20T00:10:22;101645.44;;;8.35;90.89
78383;BME280;67668;52.294;4.692;2023-12-20T00:12:48;101633.09;;;8.36;90.97
78383;BME280;67668;52.294;4.692;2023-12-20T00:15:13;101636.56;;;8.36;91.05
78383;BME280;67668;52.294;4.692;2023-12-20T00:17:38;101645.31;;;8.37;90.47
78383;BME280;67668;52.294;4.692;2023-12-20T00:20:03;101635.84;;;8.34;90.75
78383;BME280;67668;52.294;4.692;2023-12-20T00:22:29;101625.28;;;8.34;90.42
78383;BME280;67668;52.294;4.692;2023-12-20T00:24:54;101635.22;;;8.30;90.59
78383;BME280;67668;52.294;4.692;2023-12-20T00:27:19;101636.16;;;8.29;90.10
78383;BME280;67668;52.294;4.692;2023-12-20T00:29:45;101652.09;;;8.28;90.76
78383;BME280;67668;52.294;4.692;2023-12-20T00:32:13;101648.69;;;8.26;91.51
78383;BME280;67668;52.294;4.692;2023-12-20T00:34:38;101653.94;;;8.26;91.10
78383;BME280;67668;52.294;4.692;2023-12-20T00:37:03;101648.69;;;8.26;91.18
78383;BME280;67668;52.294;4.692;2023-12-20T00:39:29;101647.75;;;8.27;92.11
78383;BME280;67668;52.294;4.692;2023-12-20T00:41:54;101644.19;;;8.28;90.21
78383;BME280;67668;52.294;4.692;2023-12-20T00:44:19;101651.31;;;8.26;89.66
78383;BME280;67668;52.294;4.692;2023-12-20T00:46:44;101644.56;;;8.22;89.80
78383;BME280;67668;52.294;4.692;2023-12-20T00:49:10;101649.84;;;8.22;90.34
78383;BME280;67668;52.294;4.692;2023-12-20T00:51:35;101644.56;;;8.22;90.78
78383;BME280;67668;52.294;4.692;2023-12-20T00:54:00;101649.13;;;8.20;89.80
78383;BME280;67668;52.294;4.692;2023-12-20T00:56:26;101644.91;;;8.17;90.02
78383;BME280;67668;52.294;4.692;2023-12-20T00:58:51;101637.09;;;8.16;90.36
78383;BME280;67668;52.294;4.692;2023-12-20T01:01:16;101645.97;;;8.15;89.78
78383;BME280;67668;52.294;4.692;2023-12-20T01:03:42;101634.66;;;8.13;89.26
78383;BME280;67668;52.294;4.692;2023-12-20T01:06:07;101644.47;;;8.11;89.68
78383;BME280;67668;52.294;4.692;2023-12-20T01:08:32;101634.78;;;8.11;89.61
78383;BME280;67668;52.294;4.692;2023-12-20T01:11:00;101639.09;;;8.12;90.39
78383;BME280;67668;52.294;4.692;2023-12-20T01:13:25;101634.66;;;8.13;90.48
78383;BME280;67668;52.294;4.692;2023-12-20T01:15:50;101638.16;;;8.13;90.68
78383;BME280;67668;52.294;4.692;2023-12-20T01:18:16;101643.41;;;8.13;90.77
78383;BME280;67668;52.294;4.692;2023-12-20T01:20:41;101641.50;;;8.15;90.71
78383;BME280;67668;52.294;4.692;2023-12-20T01:23:06;101638.16;;;8.13;90.12
78383;BME280;67668;52.294;4.692;2023-12-20T01:25:31;101639.22;;;8.11;89.45
78383;BME280;67668;52.294;4.692;2023-12-20T01:27:57;101642.78;;;8.10;89.98
78383;BME280;67668;52.294;4.692;2023-12-20T01:30:22;101644.56;;;8.09;90.37
78383;BME280;67668;52.294;4.692;2023-12-20T01:32:47;101633.41;;;8.06;89.55
78383;BME280;67668;52.294;4.692;2023-12-20T01:35:13;101633.41;;;8.06;90.38
78383;BME280;67668;52.294;4.692;2023-12-20T01:37:38;101623.91;;;8.03;90.08
78383;BME280;67668;52.294;4.692;2023-12-20T01:40:04;101625.50;;;8.06;89.67
78383;BME280;67668;52.294;4.692;2023-12-20T01:42:29;101620.34;;;8.04;89.97
78383;BME280;67668;52.294;4.692;2023-12-20T01:44:54;101625.50;;;8.06;89.68
78383;BME280;67668;52.294;4.692;2023-12-20T01:47:20;101631.72;;;8.05;89.71
78383;BME280;67668;52.294;4.692;2023-12-20T01:49:45;101631.72;;;8.05;89.84
78383;BME280;67668;52.294;4.692;2023-12-20T01:52:10;101633.53;;;8.04;89.87
78383;BME280;67668;52.294;4.692;2023-12-20T01:54:36;101632.66;;;8.04;90.38
78383;BME280;67668;52.294;4.692;2023-12-20T01:57:02;101629.81;;;8.07;90.81
78383;BME280;67668;52.294;4.692;2023-12-20T01:59:28;101624.53;;;8.07;90.80
78383;BME280;67668;52.294;4.692;2023-12-20T02:01:54;101629.72;;;8.08;89.88
78383;BME280;67668;52.294;4.692;2023-12-20T02:04:20;101628.88;;;8.08;89.52
78383;BME280;67668;52.294;4.692;2023-12-20T02:06:46;101642.16;;;8.06;89.78
78383;BME280;67668;52.294;4.692;2023-12-20T02:09:11;101633.41;;;8.06;89.80
78383;BME280;67668;52.294;4.692;2023-12-20T02:11:37;101633.31;;;8.07;89.40
78383;BME280;67668;52.294;4.692;2023-12-20T02:14:03;101623.81;;;8.05;89.96
78383;BME280;67668;52.294;4.692;2023-12-20T02:16:28;101633.53;;;8.04;89.77
78383;BME280;67668;52.294;4.692;2023-12-20T02:18:54;101629.94;;;8.05;90.12
78383;BME280;67668;52.294;4.692;2023-12-20T02:21:25;101632.59;;;8.05;89.93
78383;BME280;67668;52.294;4.692;2023-12-20T02:23:50;101619.28;;;8.07;89.95
78383;BME280;67668;52.294;4.692;2023-12-20T02:26:16;101622.84;;;8.06;89.69
78383;BME280;67668;52.294;4.692;2023-12-20T02:28:41;101621.19;;;8.05;88.93
78383;BME280;67668;52.294;4.692;2023-12-20T02:31:07;101634.38;;;8.05;88.94
78383;BME280;67668;52.294;4.692;2023-12-20T02:33:32;101618.56;;;8.05;88.82
78383;BME280;67668;52.294;4.692;2023-12-20T02:35:57;101622.13;;;8.04;88.88
78383;BME280;67668;52.294;4.692;2023-12-20T02:38:23;101616.84;;;8.04;90.11
78383;BME280;67668;52.294;4.692;2023-12-20T02:40:48;101616.75;;;8.05;89.25
78383;BME280;67668;52.294;4.692;2023-12-20T02:43:13;101608.00;;;8.05;90.00
78383;BME280;67668;52.294;4.692;2023-12-20T02:45:38;101595.75;;;8.04;88.45
78383;BME280;67668;52.294;4.692;2023-12-20T02:48:04;101593.03;;;8.05;89.04
78383;BME280;67668;52.294;4.692;2023-12-20T02:50:29;101596.50;;;8.06;89.04
78383;BME280;67668;52.294;4.692;2023-12-20T02:52:54;101593.84;;;8.06;88.83
78383;BME280;67668;52.294;4.692;2023-12-20T02:55:20;101593.84;;;8.06;88.84
78383;BME280;67668;52.294;4.692;2023-12-20T02:57:45;101590.41;;;8.05;88.44
78383;BME280;67668;52.294;4.692;2023-12-20T03:00:11;101573.75;;;8.05;89.23
78383;BME280;67668;52.294;4.692;2023-12-20T03:02:36;101584.28;;;8.05;89.46
78383;BME280;67668;52.294;4.692;2023-12-20T03:05:02;101574.59;;;8.05;89.00
78383;BME280;67668;52.294;4.692;2023-12-20T03:07:27;101569.41;;;8.04;89.38
78383;BME280;67668;52.294;4.692;2023-12-20T03:09:52;101586.06;;;8.04;89.27
78383;BME280;67668;52.294;4.692;2023-12-20T03:12:18;101583.53;;;8.03;90.03
78383;BME280;67668;52.294;4.692;2023-12-20T03:14:43;101585.22;;;8.04;89.29
78383;BME280;67668;52.294;4.692;2023-12-20T03:17:09;101585.22;;;8.04;89.70
78383;BME280;67668;52.294;4.692;2023-12-20T03:19:34;101576.38;;;8.05;89.38
78383;BME280;67668;52.294;4.692;2023-12-20T03:22:00;101583.31;;;8.06;89.39
78383;BME280;67668;52.294;4.692;2023-12-20T03:24:26;101581.66;;;8.05;88.68
78383;BME280;67668;52.294;4.692;2023-12-20T03:26:51;101581.66;;;8.05;88.91
78383;BME280;67668;52.294;4.692;2023-12-20T03:29:16;101586.91;;;8.05;90.08
78383;BME280;67668;52.294;4.692;2023-12-20T03:31:41;101606.22;;;8.05;88.84
78383;BME280;67668;52.294;4.692;2023-12-20T03:34:07;101612.53;;;8.03;89.59
78383;BME280;67668;52.294;4.692;2023-12-20T03:36:32;101589.00;;;8.00;88.06
78383;BME280;67668;52.294;4.692;2023-12-20T03:38:57;101595.97;;;8.01;88.86
78383;BME280;67668;52.294;4.692;2023-12-20T03:41:22;101595.97;;;8.01;89.05
78383;BME280;67668;52.294;4.692;2023-12-20T03:43:48;101597.78;;;8.00;89.20
78383;BME280;67668;52.294;4.692;2023-12-20T03:46:13;101587.94;;;8.02;89.24
78383;BME280;67668;52.294;4.692;2023-12-20T03:48:38;101593.03;;;8.05;89.42
78383;BME280;67668;52.294;4.692;2023-12-20T03:51:04;101596.50;;;8.06;88.68
78383;BME280;67668;52.294;4.692;2023-12-20T03:53:29;101592.19;;;8.05;89.25
78383;BME280;67668;52.294;4.692;2023-12-20T03:55:54;101584.28;;;8.05;88.99
78383;BME280;67668;52.294;4.692;2023-12-20T03:58:20;101577.31;;;8.04;88.60
78383;BME280;67668;52.294;4.692;2023-12-20T04:00:45;101579.94;;;8.04;88.85
78383;BME280;67668;52.294;4.692;2023-12-20T04:03:10;101580.03;;;8.02;88.52
78383;BME280;67668;52.294;4.692;2023-12-20T04:05:39;101569.50;;;8.02;87.87
78383;BME280;67668;52.294;4.692;2023-12-20T04:08:05;101571.31;;;8.02;88.63
78383;BME280;67668;52.294;4.692;2023-12-20T04:10:30;101565.06;;;8.03;88.70
78383;BME280;67668;52.294;4.692;2023-12-20T04:12:56;101565.91;;;8.03;88.50
78383;BME280;67668;52.294;4.692;2023-12-20T04:15:21;101560.78;;;8.02;87.65
78383;BME280;67668;52.294;4.692;2023-12-20T04:17:46;101565.19;;;8.01;87.79
78383;BME280;67668;52.294;4.692;2023-12-20T04:20:11;101559.09;;;8.01;87.82
78383;BME280;67668;52.294;4.692;2023-12-20T04:22:37;101557.38;;;8.00;87.99
78383;BME280;67668;52.294;4.692;2023-12-20T04:25:02;101560.97;;;7.99;87.74
78383;BME280;67668;52.294;4.692;2023-12-20T04:27:27;101571.50;;;7.99;88.30
78383;BME280;67668;52.294;4.692;2023-12-20T04:29:53;101567.19;;;7.98;87.74
78383;BME280;67668;52.294;4.692;2023-12-20T04:32:18;101559.28;;;7.98;87.95
78383;BME280;67668;52.294;4.692;2023-12-20T04:34:43;101559.28;;;7.98;88.07
78383;BME280;67668;52.294;4.692;2023-12-20T04:37:09;101553.19;;;7.97;88.63
78383;BME280;67668;52.294;4.692;2023-12-20T04:39:34;101548.75;;;7.98;87.89
78383;BME280;67668;52.294;4.692;2023-12-20T04:41:59;101550.41;;;7.99;88.66
78383;BME280;67668;52.294;4.692;2023-12-20T04:44:24;101532.09;;;7.97;89.17
78383;BME280;67668;52.294;4.692;2023-12-20T04:46:50;101539.06;;;7.98;89.14
78383;BME280;67668;52.294;4.692;2023-12-20T04:49:15;101538.31;;;7.96;88.70
78383;BME280;67668;52.294;4.692;2023-12-20T04:51:40;101540.09;;;7.96;88.93
78383;BME280;67668;52.294;4.692;2023-12-20T04:54:06;101542.72;;;7.96;88.67
78383;BME280;67668;52.294;4.692;2023-12-20T04:56:31;101544.41;;;7.97;88.85
78383;BME280;67668;52.294;4.692;2023-12-20T04:58:56;101560.97;;;7.99;88.29
78383;BME280;67668;52.294;4.692;2023-12-20T05:01:22;101555.69;;;7.99;88.66
78383;BME280;67668;52.294;4.692;2023-12-20T05:03:47;101557.38;;;8.00;88.80
78383;BME280;67668;52.294;4.692;2023-12-20T05:06:12;101555.69;;;7.99;88.40
78383;BME280;67668;52.294;4.692;2023-12-20T05:08:38;101549.59;;;7.98;88.71
78383;BME280;67668;52.294;4.692;2023-12-20T05:11:03;101552.25;;;7.98;88.22
78383;BME280;67668;52.294;4.692;2023-12-20T05:13:29;101553.06;;;7.99;88.97
78383;BME280;67668;52.294;4.692;2023-12-20T05:15:54;101550.53;;;7.97;88.07
78383;BME280;67668;52.294;4.692;2023-12-20T05:18:22;101549.47;;;8.00;88.29
78383;BME280;67668;52.294;4.692;2023-12-20T05:20:49;101538.84;;;8.01;88.86
78383;BME280;67668;52.294;4.692;2023-12-20T05:23:15;101544.97;;;8.02;89.05
78383;BME280;67668;52.294;4.692;2023-12-20T05:25:40;101551.03;;;8.02;88.94
78383;BME280;67668;52.294;4.692;2023-12-20T05:28:05;101533.22;;;8.06;88.51
78383;BME280;67668;52.294;4.692;2023-12-20T05:30:31;101535.97;;;8.04;88.99
78383;BME280;67668;52.294;4.692;2023-12-20T05:32:56;101546.41;;;8.06;89.90
78383;BME280;67668;52.294;4.692;2023-12-20T05:35:21;101527.22;;;8.04;88.92
78383;BME280;67668;52.294;4.692;2023-12-20T05:37:48;101535.03;;;8.05;89.41
78383;BME280;67668;52.294;4.692;2023-12-20T05:40:13;101530.81;;;8.03;88.91
78383;BME280;67668;52.294;4.692;2023-12-20T05:42:39;101524.59;;;8.04;89.46
78383;BME280;67668;52.294;4.692;2023-12-20T05:45:04;101532.41;;;8.05;88.17
78383;BME280;67668;52.294;4.692;2023-12-20T05:47:30;101527.00;;;8.07;88.68
78383;BME280;67668;52.294;4.692;2023-12-20T05:49:56;101529.66;;;8.07;88.33
78383;BME280;67668;52.294;4.692;2023-12-20T05:52:21;101531.34;;;8.08;88.80
78383;BME280;67668;52.294;4.692;2023-12-20T05:54:47;101533.97;;;8.08;88.21
78383;BME280;67668;52.294;4.692;2023-12-20T05:57:12;101532.06;;;8.10;88.10
78383;BME280;67668;52.294;4.692;2023-12-20T05:59:37;101537.34;;;8.10;88.50
78383;BME280;67668;52.294;4.692;2023-12-20T06:02:03;101541.66;;;8.11;88.37
78383;BME280;67668;52.294;4.692;2023-12-20T06:04:29;101544.41;;;8.09;88.27
78383;BME280;67668;52.294;4.692;2023-12-20T06:06:54;101537.25;;;8.11;88.78
78383;BME280;67668;52.294;4.692;2023-12-20T06:09:19;101530.28;;;8.10;88.84
78383;BME280;67668;52.294;4.692;2023-12-20T06:11:45;101526.78;;;8.10;87.78
78383;BME280;67668;52.294;4.692;2023-12-20T06:14:11;101522.47;;;8.09;88.61
78383;BME280;67668;52.294;4.692;2023-12-20T06:16:36;101526.78;;;8.10;88.22
78383;BME280;67668;52.294;4.692;2023-12-20T06:19:01;101530.19;;;8.12;87.96
78383;BME280;67668;52.294;4.692;2023-12-20T06:21:26;101524.06;;;8.11;88.46
78383;BME280;67668;52.294;4.692;2023-12-20T06:23:52;101527.53;;;8.12;88.38
78383;BME280;67668;52.294;4.692;2023-12-20T06:26:17;101526.69;;;8.11;88.84
78383;BME280;67668;52.294;4.692;2023-12-20T06:28:42;101528.47;;;8.11;89.14
78383;BME280;67668;52.294;4.692;2023-12-20T06:31:07;101524.91;;;8.12;88.51
78383;BME280;67668;52.294;4.692;2023-12-20T06:33:33;101531.13;;;8.11;88.68
78383;BME280;67668;52.294;4.692;2023-12-20T06:35:58;101518.78;;;8.11;88.48
78383;BME280;67668;52.294;4.692;2023-12-20T06:38:23;101526.56;;;8.13;89.01
78383;BME280;67668;52.294;4.692;2023-12-20T06:40:49;101514.13;;;8.15;88.95
78383;BME280;67668;52.294;4.692;2023-12-20T06:43:14;101516.88;;;8.13;88.45
78383;BME280;67668;52.294;4.692;2023-12-20T06:45:39;101523.84;;;8.14;88.59
78383;BME280;67668;52.294;4.692;2023-12-20T06:48:05;101514.13;;;8.15;88.93
78383;BME280;67668;52.294;4.692;2023-12-20T06:50:31;101515.81;;;8.16;89.15
78383;BME280;67668;52.294;4.692;2023-12-20T06:52:56;101517.50;;;8.17;89.01
78383;BME280;67668;52.294;4.692;2023-12-20T06:55:21;101519.19;;;8.18;89.39
78383;BME280;67668;52.294;4.692;2023-12-20T06:57:47;101507.78;;;8.17;88.63
78383;BME280;67668;52.294;4.692;2023-12-20T07:00:12;101511.16;;;8.19;89.02
78383;BME280;67668;52.294;4.692;2023-12-20T07:02:38;101506.72;;;8.20;88.88
78383;BME280;67668;52.294;4.692;2023-12-20T07:05:03;101497.13;;;8.19;89.03
78383;BME280;67668;52.294;4.692;2023-12-20T07:07:29;101496.31;;;8.18;88.50
78383;BME280;67668;52.294;4.692;2023-12-20T07:09:54;101507.66;;;8.19;89.30
78383;BME280;67668;52.294;4.692;2023-12-20T07:12:20;101496.41;;;8.17;88.82
78383;BME280;67668;52.294;4.692;2023-12-20T07:14:45;101502.53;;;8.17;89.00
78383;BME280;67668;52.294;4.692;2023-12-20T07:17:11;101496.41;;;8.17;88.32
78383;BME280;67668;52.294;4.692;2023-12-20T07:19:41;101494.72;;;8.16;88.55
78383;BME280;67668;52.294;4.692;2023-12-20T07:22:07;101493.75;;;8.17;88.06
78383;BME280;67668;52.294;4.692;2023-12-20T07:24:33;101487.66;;;8.16;88.80
78383;BME280;67668;52.294;4.692;2023-12-20T07:27:01;101489.44;;;8.16;88.25
78383;BME280;67668;52.294;4.692;2023-12-20T07:29:27;101495.47;;;8.18;88.79
78383;BME280;67668;52.294;4.692;2023-12-20T07:31:52;101496.41;;;8.17;88.72
78383;BME280;67668;52.294;4.692;2023-12-20T07:34:19;101509.50;;;8.18;87.68
78383;BME280;67668;52.294;4.692;2023-12-20T07:36:44;101495.47;;;8.18;88.10
78383;BME280;67668;52.294;4.692;2023-12-20T07:39:10;101488.50;;;8.17;88.39
78383;BME280;67668;52.294;4.692;2023-12-20T07:41:35;101507.78;;;8.17;88.38
78383;BME280;67668;52.294;4.692;2023-12-20T07:44:00;101513.06;;;8.17;88.14
78383;BME280;67668;52.294;4.692;2023-12-20T07:46:26;101512.22;;;8.17;88.02
78383;BME280;67668;52.294;4.692;2023-12-20T07:48:51;101513.91;;;8.18;88.16
78383;BME280;67668;52.294;4.692;2023-12-20T07:51:16;101528.88;;;8.17;88.94
78383;BME280;67668;52.294;4.692;2023-12-20T07:53:42;101534.25;;;8.16;88.75
78383;BME280;67668;52.294;4.692;2023-12-20T07:56:14;101535.09;;;8.16;88.79
78383;BME280;67668;52.294;4.692;2023-12-20T07:58:40;101533.31;;;8.17;89.59
78383;BME280;67668;52.294;4.692;2023-12-20T08:01:05;101528.03;;;8.17;89.33
78383;BME280;67668;52.294;4.692;2023-12-20T08:03:31;101529.72;;;8.18;89.33
78383;BME280;67668;52.294;4.692;2023-12-20T08:05:56;101527.94;;;8.18;89.09
78383;BME280;67668;52.294;4.692;2023-12-20T08:08:24;101525.31;;;8.18;89.16
78383;BME280;67668;52.294;4.692;2023-12-20T08:10:49;101530.47;;;8.20;88.97
78383;BME280;67668;52.294;4.692;2023-12-20T08:13:15;101519.91;;;8.20;88.88
78383;BME280;67668;52.294;4.692;2023-12-20T08:15:40;101525.09;;;8.21;89.64
78383;BME280;67668;52.294;4.692;2023-12-20T08:18:06;101521.47;;;8.22;89.41
78383;BME280;67668;52.294;4.692;2023-12-20T08:20:31;101517.91;;;8.23;89.46
78383;BME280;67668;52.294;4.692;2023-12-20T08:22:56;101515.25;;;8.23;89.50
78383;BME280;67668;52.294;4.692;2023-12-20T08:25:21;101511.56;;;8.26;89.65
78383;BME280;67668;52.294;4.692;2023-12-20T08:27:47;101515.03;;;8.26;89.18
78383;BME280;67668;52.294;4.692;2023-12-20T08:30:12;101520.25;;;8.28;90.07
78383;BME280;67668;52.294;4.692;2023-12-20T08:32:38;101520.25;;;8.28;89.61
78383;BME280;67668;52.294;4.692;2023-12-20T08:35:03;101525.41;;;8.29;89.26
78383;BME280;67668;52.294;4.692;2023-12-20T08:37:29;101533.31;;;8.29;90.04
78383;BME280;67668;52.294;4.692;2023-12-20T08:39:54;101531.41;;;8.32;89.87
78383;BME280;67668;52.294;4.692;2023-12-20T08:42:20;101530.34;;;8.34;89.71
78383;BME280;67668;52.294;4.692;2023-12-20T08:44:45;101537.31;;;8.35;89.53
78383;BME280;67668;52.294;4.692;2023-12-20T08:47:10;101536.34;;;8.36;89.63
78383;BME280;67668;52.294;4.692;2023-12-20T08:49:38;101533.72;;;8.36;89.33
78383;BME280;67668;52.294;4.692;2023-12-20T08:52:04;101534.47;;;8.38;89.55
78383;BME280;67668;52.294;4.692;2023-12-20T08:54:29;101544.03;;;8.39;89.39
78383;BME280;67668;52.294;4.692;2023-12-20T08:56:54;101536.13;;;8.39;89.63
78383;BME280;67668;52.294;4.692;2023-12-20T08:59:19;101529.91;;;8.40;89.29
78383;BME280;67668;52.294;4.692;2023-12-20T09:01:45;101528.97;;;8.41;89.83
78383;BME280;67668;52.294;4.692;2023-12-20T09:04:10;101522.72;;;8.42;89.61
78383;BME280;67668;52.294;4.692;2023-12-20T09:06:35;101528.59;;;8.46;89.66
78383;BME280;67668;52.294;4.692;2023-12-20T09:09:01;101516.41;;;8.45;89.94
78383;BME280;67668;52.294;4.692;2023-12-20T09:11:26;101521.53;;;8.46;89.50
78383;BME280;67668;52.294;4.692;2023-12-20T09:13:51;101518.81;;;8.48;89.76
78383;BME280;67668;52.294;4.692;2023-12-20T09:16:16;101521.31;;;8.49;89.77
78383;BME280;67668;52.294;4.692;2023-12-20T09:18:42;101518.69;;;8.49;89.58
78383;BME280;67668;52.294;4.692;2023-12-20T09:21:07;101520.38;;;8.50;89.60
78383;BME280;67668;52.294;4.692;2023-12-20T09:23:33;101517.59;;;8.52;89.94
78383;BME280;67668;52.294;4.692;2023-12-20T09:25:58;101515.72;;;8.54;89.37
78383;BME280;67668;52.294;4.692;2023-12-20T09:28:23;101531.41;;;8.55;89.26
78383;BME280;67668;52.294;4.692;2023-12-20T09:30:48;101526.13;;;8.55;89.33
78383;BME280;67668;52.294;4.692;2023-12-20T09:33:14;101528.59;;;8.58;89.54
78383;BME280;67668;52.294;4.692;2023-12-20T09:35:39;101521.47;;;8.59;89.42
78383;BME280;67668;52.294;4.692;2023-12-20T09:38:05;101524.88;;;8.61;89.71
78383;BME280;67668;52.294;4.692;2023-12-20T09:40:30;101521.38;;;8.60;89.45
78383;BME280;67668;52.294;4.692;2023-12-20T09:43:01;101543.22;;;8.62;88.81
78383;BME280;67668;52.294;4.692;2023-12-20T09:45:30;101537.00;;;8.63;89.66
78383;BME280;67668;52.294;4.692;2023-12-20T09:47:57;101552.81;;;8.63;89.45
78383;BME280;67668;52.294;4.692;2023-12-20T09:50:23;101560.50;;;8.66;89.92
78383;BME280;67668;52.294;4.692;2023-12-20T09:52:52;101551.50;;;8.69;89.54
78383;BME280;67668;52.294;4.692;2023-12-20T09:55:18;101543.59;;;8.69;88.96
78383;BME280;67668;52.294;4.692;2023-12-20T09:57:45;101535.69;;;8.69;89.93
78383;BME280;67668;52.294;4.692;2023-12-20T10:00:10;101547.72;;;8.73;88.97
78383;BME280;67668;52.294;4.692;2023-12-20T10:02:38;101548.56;;;8.73;89.52
78383;BME280;67668;52.294;4.692;2023-12-20T10:05:08;101538.00;;;8.73;88.99
78383;BME280;67668;52.294;4.692;2023-12-20T10:07:35;101542.44;;;8.73;88.55
78383;BME280;67668;52.294;4.692;2023-12-20T10:10:01;101530.09;;;8.73;89.19
78383;BME280;67668;52.294;4.692;2023-12-20T10:12:27;101537.78;;;8.76;88.81
78383;BME280;67668;52.294;4.692;2023-12-20T10:14:52;101538.50;;;8.78;89.13
78383;BME280;67668;52.294;4.692;2023-12-20T10:17:17;101535.03;;;8.78;88.34
78383;BME280;67668;52.294;4.692;2023-12-20T10:19:43;101538.16;;;8.83;88.86
78383;BME280;67668;52.294;4.692;2023-12-20T10:22:10;101530.97;;;8.85;88.66
78383;BME280;67668;52.294;4.692;2023-12-20T10:24:35;101541.41;;;8.87;88.68
78383;BME280;67668;52.294;4.692;2023-12-20T10:27:01;101542.38;;;8.86;88.46
78383;BME280;67668;52.294;4.692;2023-12-20T10:29:31;101536.84;;;8.89;88.16
78383;BME280;67668;52.294;4.692;2023-12-20T10:31:57;101541.91;;;8.92;88.61
78383;BME280;67668;52.294;4.692;2023-12-20T10:34:23;101538.94;;;8.96;88.45
78383;BME280;67668;52.294;4.692;2023-12-20T10:36:48;101539.53;;;9.00;89.02
78383;BME280;67668;52.294;4.692;2023-12-20T10:39:13;101535.72;;;9.04;88.83
78383;BME280;67668;52.294;4.692;2023-12-20T10:41:40;101529.25;;;9.08;89.50
78383;BME280;67668;52.294;4.692;2023-12-20T10:44:06;101515.69;;;9.12;87.74
78383;BME280;67668;52.294;4.692;2023-12-20T10:46:32;101525.06;;;9.16;87.76
78383;BME280;67668;52.294;4.692;2023-12-20T10:49:04;101510.78;;;9.19;88.28
78383;BME280;67668;52.294;4.692;2023-12-20T10:51:31;101500.84;;;9.22;87.61
78383;BME280;67668;52.294;4.692;2023-12-20T10:53:56;101482.72;;;9.29;87.91
78383;BME280;67668;52.294;4.692;2023-12-20T10:56:21;101489.47;;;9.33;88.29
78383;BME280;67668;52.294;4.692;2023-12-20T10:58:49;101488.13;;;9.39;88.69
78383;BME280;67668;52.294;4.692;2023-12-20T11:01:15;101491.28;;;9.44;87.79
78383;BME280;67668;52.294;4.692;2023-12-20T11:03:47;101500.75;;;9.46;87.37
78383;BME280;67668;52.294;4.692;2023-12-20T11:08:53;101508.97;;;9.54;87.00
78383;BME280;67668;52.294;4.692;2023-12-20T11:11:32;101491.88;;;9.58;86.85
78383;BME280;67668;52.294;4.692;2023-12-20T11:14:04;101494.28;;;9.61;86.52
78383;BME280;67668;52.294;4.692;2023-12-20T11:16:32;101508.00;;;9.66;86.60
78383;BME280;67668;52.294;4.692;2023-12-20T11:18:57;101500.78;;;9.68;86.22
78383;BME280;67668;52.294;4.692;2023-12-20T11:21:23;101499.72;;;9.71;86.60
78383;BME280;67668;52.294;4.692;2023-12-20T11:23:48;101499.56;;;9.72;86.34
78383;BME280;67668;52.294;4.692;2023-12-20T11:26:16;101495.75;;;9.76;86.30
78383;BME280;67668;52.294;4.692;2023-12-20T11:28:42;101466.66;;;9.76;86.04
78383;BME280;67668;52.294;4.692;2023-12-20T11:31:07;101477.09;;;9.78;85.67
78383;BME280;67668;52.294;4.692;2023-12-20T11:33:36;101470.84;;;9.79;85.81
78383;BME280;67668;52.294;4.692;2023-12-20T11:36:03;101473.41;;;9.80;85.75
78383;BME280;67668;52.294;4.692;2023-12-20T11:38:37;101466.19;;;9.82;85.90
78383;BME280;67668;52.294;4.692;2023-12-20T11:41:05;101476.75;;;9.82;85.48
78383;BME280;67668;52.294;4.692;2023-12-20T11:43:38;101470.50;;;9.83;85.45
78383;BME280;67668;52.294;4.692;2023-12-20T11:46:05;101470.50;;;9.83;85.57
78383;BME280;67668;52.294;4.692;2023-12-20T11:48:38;101467.63;;;9.86;85.82
78383;BME280;67668;52.294;4.692;2023-12-20T11:51:13;101470.97;;;9.88;86.05
78383;BME280;67668;52.294;4.692;2023-12-20T11:53:42;101450.66;;;9.89;85.24
78383;BME280;67668;52.294;4.692;2023-12-20T11:56:08;101452.47;;;9.88;85.57
78383;BME280;67668;52.294;4.692;2023-12-20T11:58:34;101463.88;;;9.89;85.73
78383;BME280;67668;52.294;4.692;2023-12-20T12:00:59;101465.44;;;9.92;85.59
78383;BME280;67668;52.294;4.692;2023-12-20T12:03:24;101466.16;;;9.94;84.95
78383;BME280;67668;52.294;4.692;2023-12-20T12:05:50;101466.16;;;9.94;85.73
78383;BME280;67668;52.294;4.692;2023-12-20T12:08:16;101469.66;;;9.94;85.70
78383;BME280;67668;52.294;4.692;2023-12-20T12:10:43;101470.47;;;9.95;84.97
78383;BME280;67668;52.294;4.692;2023-12-20T12:13:08;101468.81;;;9.94;85.35
78383;BME280;67668;52.294;4.692;2023-12-20T12:15:35;101450.31;;;9.94;85.43
78383;BME280;67668;52.294;4.692;2023-12-20T12:18:01;101458.00;;;9.97;85.18
78383;BME280;67668;52.294;4.692;2023-12-20T12:20:26;101450.91;;;9.97;85.78
78383;BME280;67668;52.294;4.692;2023-12-20T12:23:22;101438.50;;;9.98;85.93
78383;BME280;67668;52.294;4.692;2023-12-20T12:25:48;101439.22;;;10.00;85.61
78383;BME280;67668;52.294;4.692;2023-12-20T12:28:14;101428.75;;;9.98;85.69
78383;BME280;67668;52.294;4.692;2023-12-20T12:30:39;101430.34;;;10.01;85.82
78383;BME280;67668;52.294;4.692;2023-12-20T12:33:04;101428.66;;;10.00;85.61
78383;BME280;67668;52.294;4.692;2023-12-20T12:35:30;101416.38;;;9.99;84.95
78383;BME280;67668;52.294;4.692;2023-12-20T12:37:55;101426.00;;;10.00;85.30
78383;BME280;67668;52.294;4.692;2023-12-20T12:40:20;101420.72;;;10.00;85.38
78383;BME280;67668;52.294;4.692;2023-12-20T12:42:46;101436.84;;;9.97;84.74
78383;BME280;67668;52.294;4.692;2023-12-20T12:45:11;101419.28;;;9.96;84.79
78383;BME280;67668;52.294;4.692;2023-12-20T12:47:37;101409.56;;;9.96;85.29
78383;BME280;67668;52.294;4.692;2023-12-20T12:50:03;101410.25;;;9.98;84.73
78383;BME280;67668;52.294;4.692;2023-12-20T12:52:30;101421.09;;;9.95;84.26
78383;BME280;67668;52.294;4.692;2023-12-20T12:54:55;101394.78;;;9.94;84.23